createdAt,value
2019-04-07T00:01:29.233Z,13.35
2019-04-07T00:06:30.871Z,12.33
2019-04-07T00:11:32.706Z,13.28
2019-04-07T00:16:34.285Z,13.62
2019-04-07T00:21:36.440Z,14.68
2019-04-07T00:26:38.085Z,13.38
2019-04-07T00:31:41.523Z,14.47
2019-04-07T00:36:44.776Z,13.28
2019-04-07T00:41:46.549Z,13.75
2019-04-07T00:46:48.674Z,16.23
2019-04-07T00:51:51.906Z,14.95
2019-04-07T00:56:53.618Z,13.58
2019-04-07T01:01:55.399Z,16.35
2019-04-07T01:06:57.500Z,14.90
2019-04-07T01:11:59.541Z,14.25
2019-04-07T01:17:01.215Z,16.12
2019-04-07T01:22:03.906Z,13.45
2019-04-07T01:27:05.648Z,14.65
2019-04-07T01:32:07.369Z,13.20
2019-04-07T01:37:08.898Z,14.15
2019-04-07T01:42:20.184Z,14.03
2019-04-07T01:47:29.654Z,14.65
2019-04-07T01:57:34.566Z,13.05
2019-04-07T02:02:42.278Z,13.13
2019-04-07T02:07:45.821Z,11.53
2019-04-07T02:12:47.818Z,12.78
2019-04-07T02:18:09.225Z,13.55
2019-04-07T02:23:29.169Z,12.18
2019-04-07T02:28:30.887Z,14.83
2019-04-07T02:33:34.941Z,11.45
2019-04-07T02:38:36.886Z,12.82
2019-04-07T02:43:40.379Z,11.35
2019-04-07T02:48:44.641Z,11.08
2019-04-07T02:53:48.344Z,11.12
2019-04-07T02:58:54.963Z,12.23
2019-04-07T03:04:05.404Z,12.65
2019-04-07T03:09:09.037Z,11.00
2019-04-07T03:14:15.719Z,10.10
2019-04-07T03:19:19.376Z,11.57
2019-04-07T03:24:26.549Z,10.35
2019-04-07T03:29:33.877Z,10.23
2019-04-07T03:34:38.749Z,11.08
2019-04-07T03:39:46.593Z,10.15
2019-04-07T03:44:57.069Z,9.83
2019-04-07T03:50:07.147Z,10.03
2019-04-07T03:55:15.323Z,9.50
2019-04-07T04:01:05.387Z,9.68
2019-04-07T04:06:09.137Z,8.13
2019-04-07T04:11:29.598Z,9.70
2019-04-07T04:16:32.227Z,8.98
2019-04-07T04:21:33.848Z,8.80
2019-04-07T04:26:37.775Z,7.87
2019-04-07T04:31:40.338Z,8.90
2019-04-07T04:36:42.265Z,8.18
2019-04-07T04:41:44.691Z,8.73
2019-04-07T04:46:47.298Z,8.98
2019-04-07T04:51:50.118Z,8.58
2019-04-07T04:56:52.305Z,8.18
2019-04-07T05:01:53.900Z,7.62
2019-04-07T05:06:55.512Z,8.08
2019-04-07T05:11:58.733Z,8.15
2019-04-07T05:17:00.714Z,8.15
2019-04-07T05:22:02.531Z,7.72
2019-04-07T05:27:04.129Z,7.85
2019-04-07T05:32:05.774Z,7.28
2019-04-07T05:37:07.598Z,6.35
2019-04-07T05:42:09.231Z,10.90
2019-04-07T05:47:12.388Z,9.00
2019-04-07T05:52:14.866Z,7.92
2019-04-07T05:57:16.540Z,7.85
2019-04-07T06:02:18.890Z,9.90
2019-04-07T06:07:21.219Z,6.78
2019-04-07T06:12:23.475Z,7.55
2019-04-07T06:17:26.360Z,7.62
2019-04-07T06:22:29.311Z,11.73
2019-04-07T06:27:31.379Z,9.70
2019-04-07T06:32:36.113Z,11.48
2019-04-07T06:37:37.342Z,11.22
2019-04-07T06:42:40.463Z,9.90
2019-04-07T06:47:46.633Z,10.55
2019-04-07T06:53:02.263Z,11.40
2019-04-07T06:58:08.353Z,8.80
2019-04-07T07:03:19.659Z,14.05
2019-04-07T07:08:23.565Z,12.98
2019-04-07T07:13:34.309Z,14.25
2019-04-07T07:18:54.673Z,13.98
2019-04-07T07:23:55.823Z,10.23
2019-04-07T07:28:57.601Z,9.60
2019-04-07T07:33:59.374Z,10.40
2019-04-07T07:39:02.461Z,9.18
2019-04-07T07:44:08.438Z,12.93
2019-04-07T07:49:10.369Z,10.85
2019-04-07T07:54:14.259Z,12.75
2019-04-07T07:59:15.594Z,10.72
2019-04-07T08:04:17.398Z,9.63
2019-04-07T08:09:23.678Z,13.38
2019-04-07T08:14:22.689Z,11.63
2019-04-07T08:19:29.193Z,17.65
2019-04-07T08:24:28.294Z,9.50
2019-04-07T08:29:30.916Z,10.93
2019-04-07T08:34:32.981Z,14.35
2019-04-07T08:39:36.030Z,17.17
2019-04-07T08:44:38.243Z,13.50
2019-04-07T08:49:40.401Z,9.73
2019-04-07T08:54:42.217Z,19.87
2019-04-07T08:59:43.955Z,10.20
2019-04-07T09:04:49.955Z,11.38
2019-04-07T09:09:49.981Z,11.88
2019-04-07T09:14:51.807Z,9.23
2019-04-07T09:19:58.287Z,11.22
2019-04-07T09:25:20.404Z,9.45
2019-04-07T09:30:40.886Z,10.60
2019-04-07T09:36:00.741Z,12.73
2019-04-07T09:41:08.473Z,8.30
2019-04-07T09:46:29.026Z,12.60
2019-04-07T09:51:37.640Z,8.80
2019-04-07T09:56:46.157Z,9.70
2019-04-07T10:01:59.475Z,12.07
2019-04-07T10:07:16.174Z,10.25
2019-04-07T10:12:28.201Z,10.13
2019-04-07T10:17:32.934Z,17.85
2019-04-07T10:22:37.471Z,10.95
2019-04-07T10:27:41.105Z,10.30
2019-04-07T10:32:48.875Z,13.30
2019-04-07T10:37:53.208Z,13.83
2019-04-07T10:42:57.727Z,12.00
2019-04-07T10:48:19.078Z,21.17
2019-04-07T10:53:22.823Z,19.00
2019-04-07T10:58:24.839Z,29.00
2019-04-07T11:03:44.410Z,16.77
2019-04-07T11:14:06.879Z,18.00
2019-04-07T11:19:08.939Z,16.62
2019-04-07T11:24:18.699Z,15.75
2019-04-07T11:29:20.786Z,11.88
2019-04-07T11:34:30.475Z,13.32
2019-04-07T11:39:34.112Z,13.62
2019-04-07T11:44:45.506Z,9.28
2019-04-07T11:50:04.934Z,12.50
2019-04-07T11:55:27.342Z,12.03
2019-04-07T12:00:48.815Z,12.78
2019-04-07T12:06:00.280Z,14.07
2019-04-07T12:11:20.238Z,12.05
2019-04-07T12:16:33.742Z,11.90
2019-04-07T12:21:49.645Z,10.25
2019-04-07T12:26:54.869Z,12.88
2019-04-07T12:32:13.459Z,10.90
2019-04-07T12:37:18.650Z,11.63
2019-04-07T12:42:31.987Z,11.43
2019-04-07T12:47:36.612Z,13.38
2019-04-07T12:52:55.429Z,12.85
2019-04-07T12:58:10.805Z,11.27
2019-04-07T13:03:18.143Z,9.30
2019-04-07T13:08:32.162Z,9.87
2019-04-07T13:13:37.434Z,13.22
2019-04-07T13:18:45.626Z,9.45
2019-04-07T13:23:51.756Z,17.00
2019-04-07T13:28:59.165Z,14.15
2019-04-07T13:34:04.274Z,10.58
2019-04-07T13:39:10.153Z,13.15
2019-04-07T13:44:22.853Z,13.50
2019-04-07T13:49:27.856Z,12.75
2019-04-07T13:54:32.176Z,12.07
2019-04-07T13:59:42.615Z,14.93
2019-04-07T14:04:56.277Z,11.60
2019-04-07T14:10:13.167Z,11.93
2019-04-07T14:15:33.644Z,11.60
2019-04-07T14:20:37.568Z,10.58
2019-04-07T14:25:53.589Z,11.15
2019-04-07T14:31:05.454Z,12.37
2019-04-07T14:36:19.630Z,9.90
2019-04-07T14:41:35.690Z,12.18
2019-04-07T14:46:56.229Z,10.10
2019-04-07T14:52:03.841Z,14.85
2019-04-07T14:57:13.290Z,11.85
2019-04-07T15:02:15.750Z,13.38
2019-04-07T15:07:36.587Z,14.98
2019-04-07T15:12:40.350Z,12.60
2019-04-07T15:17:42.485Z,13.30
2019-04-07T15:22:46.138Z,14.03
2019-04-07T15:27:47.768Z,14.50
2019-04-07T15:32:50.380Z,27.32
2019-04-07T15:37:52.520Z,22.25
2019-04-07T15:42:54.181Z,25.15
2019-04-07T15:47:56.458Z,18.27
2019-04-07T15:52:58.534Z,19.90
2019-04-07T15:58:00.403Z,19.20
2019-04-07T16:03:02.337Z,16.02
2019-04-07T16:08:04.274Z,18.90
2019-04-07T16:13:06.643Z,18.07
2019-04-07T16:18:08.743Z,23.73
2019-04-07T16:23:10.821Z,17.25
2019-04-07T16:28:14.662Z,17.05
2019-04-07T16:33:17.459Z,21.02
2019-04-07T16:38:19.563Z,18.52
2019-04-07T16:43:22.072Z,22.45
2019-04-07T16:48:24.697Z,17.52
2019-04-07T16:53:27.002Z,20.15
2019-04-07T16:58:30.710Z,20.72
2019-04-07T17:03:33.079Z,28.55
2019-04-07T17:08:34.619Z,27.40
2019-04-07T17:13:41.859Z,29.63
2019-04-07T17:18:43.084Z,35.45
2019-04-07T17:23:45.621Z,25.80
2019-04-07T17:28:48.833Z,28.60
2019-04-07T17:33:51.977Z,25.55
2019-04-07T17:39:08.477Z,22.25
2019-04-07T17:44:29.736Z,22.45
2019-04-07T17:49:38.769Z,17.52
2019-04-07T17:54:48.907Z,21.55
2019-04-07T17:59:54.871Z,21.10
2019-04-07T18:05:08.503Z,21.48
2019-04-07T18:10:12.317Z,18.10
2019-04-07T18:15:26.332Z,18.37
2019-04-07T18:20:46.738Z,22.15
2019-04-07T18:25:54.173Z,24.00
2019-04-07T18:31:03.060Z,19.32
2019-04-07T18:36:15.792Z,16.15
2019-04-07T18:41:19.800Z,17.05
2019-04-07T18:46:28.936Z,18.17
2019-04-07T18:51:46.634Z,18.52
2019-04-07T18:56:54.576Z,17.10
2019-04-07T19:02:04.406Z,20.08
2019-04-07T19:07:06.234Z,15.68
2019-04-07T19:12:16.778Z,19.73
2019-04-07T19:17:17.102Z,17.80
2019-04-07T19:22:23.585Z,21.20
2019-04-07T19:27:39.138Z,16.42
2019-04-07T19:32:48.606Z,16.45
2019-04-07T19:38:11.035Z,15.58
2019-04-07T19:43:30.397Z,19.87
2019-04-07T19:48:39.046Z,15.08
2019-04-07T19:53:43.145Z,17.27
2019-04-07T19:58:51.296Z,15.60
2019-04-07T20:04:10.871Z,15.70
2019-04-07T20:09:17.130Z,13.50
2019-04-07T20:14:46.020Z,16.50
2019-04-07T20:19:41.455Z,15.13
2019-04-07T20:25:02.009Z,13.85
2019-04-07T20:30:17.792Z,15.53
2019-04-07T20:35:35.002Z,15.13
2019-04-07T20:40:39.668Z,16.12
2019-04-07T20:45:51.615Z,16.12
2019-04-07T20:51:04.670Z,18.20
2019-04-07T20:56:27.088Z,14.98
2019-04-07T21:01:59.909Z,14.85
2019-04-07T21:06:51.069Z,14.87
2019-04-07T21:11:59.672Z,16.23
2019-04-07T21:17:19.801Z,15.70
2019-04-07T21:22:37.652Z,16.75
2019-04-07T21:27:44.037Z,14.03
2019-04-07T21:32:49.768Z,14.87
2019-04-07T21:37:58.884Z,16.77
2019-04-07T21:48:07.026Z,16.55
2019-04-07T21:53:16.228Z,15.15
2019-04-07T21:58:36.460Z,14.80
2019-04-07T22:03:53.186Z,15.23
2019-04-07T22:08:56.661Z,15.60
2019-04-07T22:13:58.227Z,15.23
2019-04-07T22:18:59.946Z,14.78
2019-04-07T22:24:02.199Z,15.80
2019-04-07T22:29:05.547Z,15.15
2019-04-07T22:34:07.327Z,13.98
2019-04-07T22:39:09.006Z,18.65
2019-04-07T22:44:11.353Z,15.00
2019-04-07T22:49:13.503Z,16.87
2019-04-07T22:54:15.443Z,14.63
2019-04-07T22:59:17.568Z,15.53
2019-04-07T23:04:20.228Z,16.02
2019-04-07T23:09:22.999Z,15.65
2019-04-07T23:14:25.403Z,15.80
2019-04-07T23:19:27.100Z,13.93
2019-04-07T23:24:28.887Z,13.93
2019-04-07T23:29:30.621Z,14.45
2019-04-07T23:34:32.978Z,16.20
2019-04-07T23:39:35.560Z,13.62
2019-04-07T23:44:37.381Z,15.18
2019-04-07T23:49:39.046Z,14.80
2019-04-07T23:54:40.633Z,14.30
2019-04-07T23:59:42.213Z,15.55
